sensor_id;sensor_type;location;lat;lon;timestamp;P1;durP1;ratioP1;P2;durP2;ratioP2
7903;SDS011;3997;48.416;8.512;2023-05-20T00:02:10;4.18;;;3.78;;
7903;SDS011;3997;48.416;8.512;2023-05-20T00:04:37;4.07;;;3.67;;
7903;SDS011;3997;48.416;8.512;2023-05-20T00:07:05;4.07;;;3.65;;
7903;SDS011;3997;48.416;8.512;2023-05-20T00:09:32;3.70;;;3.42;;
7903;SDS011;3997;48.416;8.512;2023-05-20T00:11:59;4.63;;;3.50;;
7903;SDS011;3997;48.416;8.512;2023-05-20T00:14:26;3.80;;;3.50;;
7903;SDS011;3997;48.416;8.512;2023-05-20T00:16:54;4.15;;;3.33;;
7903;SDS011;3997;48.416;8.512;2023-05-20T00:19:21;5.80;;;3.60;;
7903;SDS011;3997;48.416;8.512;2023-05-20T00:21:48;3.63;;;3.30;;
7903;SDS011;3997;48.416;8.512;2023-05-20T00:24:14;3.42;;;3.22;;
7903;SDS011;3997;48.416;8.512;2023-05-20T00:26:41;4.03;;;3.63;;
7903;SDS011;3997;48.416;8.512;2023-05-20T00:29:07;3.38;;;2.97;;
7903;SDS011;3997;48.416;8.512;2023-05-20T00:31:34;3.67;;;3.30;;
7903;SDS011;3997;48.416;8.512;2023-05-20T00:34:02;6.15;;;3.90;;
7903;SDS011;3997;48.416;8.512;2023-05-20T00:36:29;4.07;;;3.08;;
7903;SDS011;3997;48.416;8.512;2023-05-20T00:38:56;4.50;;;3.25;;
7903;SDS011;3997;48.416;8.512;2023-05-20T00:41:23;3.63;;;3.20;;
7903;SDS011;3997;48.416;8.512;2023-05-20T00:43:51;4.03;;;3.50;;
7903;SDS011;3997;48.416;8.512;2023-05-20T00:46:18;3.70;;;3.28;;
7903;SDS011;3997;48.416;8.512;2023-05-20T00:48:45;3.63;;;2.72;;
7903;SDS011;3997;48.416;8.512;2023-05-20T00:51:13;4.45;;;3.03;;
7903;SDS011;3997;48.416;8.512;2023-05-20T00:53:40;3.78;;;3.30;;
7903;SDS011;3997;48.416;8.512;2023-05-20T00:56:08;5.07;;;3.30;;
7903;SDS011;3997;48.416;8.512;2023-05-20T00:58:35;3.47;;;3.17;;
7903;SDS011;3997;48.416;8.512;2023-05-20T01:01:03;3.00;;;2.80;;
7903;SDS011;3997;48.416;8.512;2023-05-20T01:03:30;3.75;;;3.03;;
7903;SDS011;3997;48.416;8.512;2023-05-20T01:05:57;3.42;;;2.72;;
7903;SDS011;3997;48.416;8.512;2023-05-20T01:08:26;3.17;;;2.88;;
7903;SDS011;3997;48.416;8.512;2023-05-20T01:10:54;3.60;;;2.88;;
7903;SDS011;3997;48.416;8.512;2023-05-20T01:13:30;4.00;;;3.30;;
7903;SDS011;3997;48.416;8.512;2023-05-20T01:16:02;4.85;;;3.10;;
7903;SDS011;3997;48.416;8.512;2023-05-20T01:18:29;4.07;;;3.25;;
7903;SDS011;3997;48.416;8.512;2023-05-20T01:20:58;3.97;;;3.55;;
7903;SDS011;3997;48.416;8.512;2023-05-20T01:23:32;3.95;;;3.55;;
7903;SDS011;3997;48.416;8.512;2023-05-20T01:26:00;3.80;;;3.40;;
7903;SDS011;3997;48.416;8.512;2023-05-20T01:28:27;4.47;;;3.58;;
7903;SDS011;3997;48.416;8.512;2023-05-20T01:30:54;4.47;;;3.53;;
7903;SDS011;3997;48.416;8.512;2023-05-20T01:33:25;3.95;;;3.55;;
7903;SDS011;3997;48.416;8.512;2023-05-20T01:35:54;4.13;;;3.70;;
7903;SDS011;3997;48.416;8.512;2023-05-20T01:38:22;4.22;;;3.78;;
7903;SDS011;3997;48.416;8.512;2023-05-20T01:40:51;3.85;;;3.35;;
7903;SDS011;3997;48.416;8.512;2023-05-20T01:43:20;5.85;;;3.60;;
7903;SDS011;3997;48.416;8.512;2023-05-20T01:45:47;4.20;;;3.67;;
7903;SDS011;3997;48.416;8.512;2023-05-20T01:48:14;3.83;;;3.42;;
7903;SDS011;3997;48.416;8.512;2023-05-20T01:50:41;3.33;;;2.95;;
7903;SDS011;3997;48.416;8.512;2023-05-20T01:53:08;3.78;;;3.50;;
7903;SDS011;3997;48.416;8.512;2023-05-20T01:55:34;4.50;;;3.45;;
7903;SDS011;3997;48.416;8.512;2023-05-20T01:58:03;3.83;;;3.50;;
7903;SDS011;3997;48.416;8.512;2023-05-20T02:00:30;5.38;;;3.40;;
7903;SDS011;3997;48.416;8.512;2023-05-20T02:02:58;3.75;;;3.45;;
7903;SDS011;3997;48.416;8.512;2023-05-20T02:05:24;4.30;;;3.90;;
7903;SDS011;3997;48.416;8.512;2023-05-20T02:07:51;6.53;;;4.03;;
7903;SDS011;3997;48.416;8.512;2023-05-20T02:10:18;3.53;;;3.20;;
7903;SDS011;3997;48.416;8.512;2023-05-20T02:12:44;3.53;;;3.22;;
7903;SDS011;3997;48.416;8.512;2023-05-20T02:15:13;4.75;;;3.70;;
7903;SDS011;3997;48.416;8.512;2023-05-20T02:17:40;3.97;;;3.67;;
7903;SDS011;3997;48.416;8.512;2023-05-20T02:20:07;4.38;;;3.38;;
7903;SDS011;3997;48.416;8.512;2023-05-20T02:22:35;5.40;;;3.42;;
7903;SDS011;3997;48.416;8.512;2023-05-20T02:25:02;4.25;;;3.85;;
7903;SDS011;3997;48.416;8.512;2023-05-20T02:27:29;3.35;;;3.10;;
7903;SDS011;3997;48.416;8.512;2023-05-20T02:29:56;4.03;;;3.58;;
7903;SDS011;3997;48.416;8.512;2023-05-20T02:32:24;5.25;;;3.80;;
7903;SDS011;3997;48.416;8.512;2023-05-20T02:34:53;4.10;;;3.38;;
7903;SDS011;3997;48.416;8.512;2023-05-20T02:37:19;3.80;;;3.45;;
7903;SDS011;3997;48.416;8.512;2023-05-20T02:39:46;4.40;;;4.00;;
7903;SDS011;3997;48.416;8.512;2023-05-20T02:42:13;4.25;;;3.35;;
7903;SDS011;3997;48.416;8.512;2023-05-20T02:44:39;4.30;;;3.40;;
7903;SDS011;3997;48.416;8.512;2023-05-20T02:47:06;4.05;;;3.22;;
7903;SDS011;3997;48.416;8.512;2023-05-20T02:49:34;3.55;;;3.25;;
7903;SDS011;3997;48.416;8.512;2023-05-20T02:52:01;4.43;;;4.03;;
7903;SDS011;3997;48.416;8.512;2023-05-20T02:54:28;3.92;;;3.63;;
7903;SDS011;3997;48.416;8.512;2023-05-20T02:56:55;3.78;;;3.45;;
7903;SDS011;3997;48.416;8.512;2023-05-20T02:59:21;5.35;;;3.53;;
7903;SDS011;3997;48.416;8.512;2023-05-20T03:01:48;5.20;;;4.25;;
7903;SDS011;3997;48.416;8.512;2023-05-20T03:04:15;3.97;;;3.40;;
7903;SDS011;3997;48.416;8.512;2023-05-20T03:06:44;5.60;;;3.83;;
7903;SDS011;3997;48.416;8.512;2023-05-20T03:09:11;3.95;;;3.50;;
7903;SDS011;3997;48.416;8.512;2023-05-20T03:11:38;4.00;;;3.60;;
7903;SDS011;3997;48.416;8.512;2023-05-20T03:14:05;3.63;;;3.13;;
7903;SDS011;3997;48.416;8.512;2023-05-20T03:16:31;3.72;;;3.38;;
7903;SDS011;3997;48.416;8.512;2023-05-20T03:18:59;3.80;;;3.50;;
7903;SDS011;3997;48.416;8.512;2023-05-20T03:21:26;3.53;;;3.25;;
7903;SDS011;3997;48.416;8.512;2023-05-20T03:23:54;4.15;;;3.75;;
7903;SDS011;3997;48.416;8.512;2023-05-20T03:26:21;3.60;;;3.30;;
7903;SDS011;3997;48.416;8.512;2023-05-20T03:28:49;3.60;;;3.30;;
7903;SDS011;3997;48.416;8.512;2023-05-20T03:31:16;4.68;;;4.10;;
7903;SDS011;3997;48.416;8.512;2023-05-20T03:33:43;4.93;;;3.70;;
7903;SDS011;3997;48.416;8.512;2023-05-20T03:36:10;5.10;;;3.75;;
7903;SDS011;3997;48.416;8.512;2023-05-20T03:38:37;3.95;;;3.65;;
7903;SDS011;3997;48.416;8.512;2023-05-20T03:41:05;3.90;;;3.60;;
7903;SDS011;3997;48.416;8.512;2023-05-20T03:43:31;4.40;;;4.00;;
7903;SDS011;3997;48.416;8.512;2023-05-20T03:45:58;4.25;;;3.70;;
7903;SDS011;3997;48.416;8.512;2023-05-20T03:48:25;5.40;;;3.83;;
7903;SDS011;3997;48.416;8.512;2023-05-20T03:50:51;4.40;;;4.00;;
7903;SDS011;3997;48.416;8.512;2023-05-20T03:53:18;4.07;;;3.33;;
7903;SDS011;3997;48.416;8.512;2023-05-20T03:55:45;5.72;;;3.70;;
7903;SDS011;3997;48.416;8.512;2023-05-20T03:58:13;3.83;;;3.42;;
7903;SDS011;3997;48.416;8.512;2023-05-20T04:00:40;4.50;;;3.65;;
7903;SDS011;3997;48.416;8.512;2023-05-20T04:03:07;4.70;;;3.90;;
7903;SDS011;3997;48.416;8.512;2023-05-20T04:05:34;4.22;;;3.65;;
7903;SDS011;3997;48.416;8.512;2023-05-20T04:08:01;4.05;;;3.65;;
7903;SDS011;3997;48.416;8.512;2023-05-20T04:10:28;4.07;;;3.67;;
7903;SDS011;3997;48.416;8.512;2023-05-20T04:12:56;5.13;;;4.07;;
7903;SDS011;3997;48.416;8.512;2023-05-20T04:15:24;3.67;;;3.38;;
7903;SDS011;3997;48.416;8.512;2023-05-20T04:17:53;4.13;;;3.47;;
7903;SDS011;3997;48.416;8.512;2023-05-20T04:20:20;4.00;;;3.60;;
7903;SDS011;3997;48.416;8.512;2023-05-20T04:22:48;6.30;;;3.95;;
7903;SDS011;3997;48.416;8.512;2023-05-20T04:25:15;4.55;;;4.25;;
7903;SDS011;3997;48.416;8.512;2023-05-20T04:27:42;7.35;;;4.20;;
7903;SDS011;3997;48.416;8.512;2023-05-20T04:30:09;3.72;;;3.42;;
7903;SDS011;3997;48.416;8.512;2023-05-20T04:32:38;4.10;;;3.80;;
7903;SDS011;3997;48.416;8.512;2023-05-20T04:35:05;4.60;;;4.10;;
7903;SDS011;3997;48.416;8.512;2023-05-20T04:37:35;4.55;;;4.07;;
7903;SDS011;3997;48.416;8.512;2023-05-20T04:40:02;4.20;;;3.80;;
7903;SDS011;3997;48.416;8.512;2023-05-20T04:42:30;3.90;;;3.60;;
7903;SDS011;3997;48.416;8.512;2023-05-20T04:44:57;4.85;;;3.97;;
7903;SDS011;3997;48.416;8.512;2023-05-20T04:47:25;4.18;;;3.65;;
7903;SDS011;3997;48.416;8.512;2023-05-20T04:49:54;4.25;;;3.85;;
7903;SDS011;3997;48.416;8.512;2023-05-20T04:52:21;4.10;;;3.80;;
7903;SDS011;3997;48.416;8.512;2023-05-20T04:54:48;5.18;;;4.22;;
7903;SDS011;3997;48.416;8.512;2023-05-20T04:57:15;4.20;;;3.80;;
7903;SDS011;3997;48.416;8.512;2023-05-20T04:59:45;4.40;;;4.03;;
7903;SDS011;3997;48.416;8.512;2023-05-20T05:02:11;4.30;;;3.90;;
7903;SDS011;3997;48.416;8.512;2023-05-20T05:04:38;4.18;;;3.88;;
7903;SDS011;3997;48.416;8.512;2023-05-20T05:07:06;4.20;;;3.85;;
7903;SDS011;3997;48.416;8.512;2023-05-20T05:09:33;4.10;;;3.72;;
7903;SDS011;3997;48.416;8.512;2023-05-20T05:12:01;4.28;;;3.88;;
7903;SDS011;3997;48.416;8.512;2023-05-20T05:14:27;4.22;;;3.92;;
7903;SDS011;3997;48.416;8.512;2023-05-20T05:16:54;4.20;;;3.80;;
7903;SDS011;3997;48.416;8.512;2023-05-20T05:19:21;4.97;;;4.57;;
7903;SDS011;3997;48.416;8.512;2023-05-20T05:21:48;4.88;;;4.47;;
7903;SDS011;3997;48.416;8.512;2023-05-20T05:24:16;5.68;;;4.22;;
7903;SDS011;3997;48.416;8.512;2023-05-20T05:26:42;5.28;;;4.28;;
7903;SDS011;3997;48.416;8.512;2023-05-20T05:29:09;5.53;;;4.30;;
7903;SDS011;3997;48.416;8.512;2023-05-20T05:31:36;4.95;;;4.60;;
7903;SDS011;3997;48.416;8.512;2023-05-20T05:34:02;5.13;;;4.63;;
7903;SDS011;3997;48.416;8.512;2023-05-20T05:36:30;5.43;;;4.93;;
7903;SDS011;3997;48.416;8.512;2023-05-20T05:38:57;4.63;;;4.22;;
7903;SDS011;3997;48.416;8.512;2023-05-20T05:41:25;5.45;;;4.63;;
7903;SDS011;3997;48.416;8.512;2023-05-20T05:43:52;4.43;;;4.13;;
7903;SDS011;3997;48.416;8.512;2023-05-20T05:46:19;6.63;;;4.25;;
7903;SDS011;3997;48.416;8.512;2023-05-20T05:48:46;4.65;;;4.25;;
7903;SDS011;3997;48.416;8.512;2023-05-20T05:51:14;4.50;;;4.10;;
7903;SDS011;3997;48.416;8.512;2023-05-20T05:53:41;6.10;;;4.70;;
7903;SDS011;3997;48.416;8.512;2023-05-20T05:56:08;4.72;;;4.32;;
7903;SDS011;3997;48.416;8.512;2023-05-20T05:58:36;5.10;;;4.60;;
7903;SDS011;3997;48.416;8.512;2023-05-20T06:01:03;6.00;;;4.95;;
7903;SDS011;3997;48.416;8.512;2023-05-20T06:03:29;4.88;;;4.03;;
7903;SDS011;3997;48.416;8.512;2023-05-20T06:05:56;5.93;;;4.85;;
7903;SDS011;3997;48.416;8.512;2023-05-20T06:08:23;5.30;;;4.90;;
7903;SDS011;3997;48.416;8.512;2023-05-20T06:10:50;4.90;;;4.40;;
7903;SDS011;3997;48.416;8.512;2023-05-20T06:13:17;5.55;;;5.15;;
7903;SDS011;3997;48.416;8.512;2023-05-20T06:15:45;5.28;;;4.85;;
7903;SDS011;3997;48.416;8.512;2023-05-20T06:18:14;5.82;;;5.32;;
7903;SDS011;3997;48.416;8.512;2023-05-20T06:20:40;5.22;;;4.82;;
7903;SDS011;3997;48.416;8.512;2023-05-20T06:23:07;5.45;;;4.90;;
7903;SDS011;3997;48.416;8.512;2023-05-20T06:25:34;6.43;;;5.05;;
7903;SDS011;3997;48.416;8.512;2023-05-20T06:28:00;5.80;;;5.30;;
7903;SDS011;3997;48.416;8.512;2023-05-20T06:30:27;8.50;;;7.63;;
7903;SDS011;3997;48.416;8.512;2023-05-20T06:32:55;7.72;;;7.03;;
7903;SDS011;3997;48.416;8.512;2023-05-20T06:35:22;8.95;;;8.05;;
7903;SDS011;3997;48.416;8.512;2023-05-20T06:37:48;7.63;;;6.90;;
7903;SDS011;3997;48.416;8.512;2023-05-20T06:40:15;11.75;;;10.52;;
7903;SDS011;3997;48.416;8.512;2023-05-20T06:42:42;6.50;;;5.90;;
7903;SDS011;3997;48.416;8.512;2023-05-20T06:45:09;8.52;;;5.35;;
7903;SDS011;3997;48.416;8.512;2023-05-20T06:47:37;5.88;;;5.28;;
7903;SDS011;3997;48.416;8.512;2023-05-20T06:50:06;5.82;;;5.32;;
7903;SDS011;3997;48.416;8.512;2023-05-20T06:52:33;7.55;;;5.07;;
7903;SDS011;3997;48.416;8.512;2023-05-20T06:55:00;5.28;;;4.78;;
7903;SDS011;3997;48.416;8.512;2023-05-20T06:57:26;5.93;;;5.28;;
7903;SDS011;3997;48.416;8.512;2023-05-20T06:59:53;7.88;;;7.07;;
7903;SDS011;3997;48.416;8.512;2023-05-20T07:02:20;7.75;;;6.15;;
7903;SDS011;3997;48.416;8.512;2023-05-20T07:04:46;6.43;;;5.75;;
7903;SDS011;3997;48.416;8.512;2023-05-20T07:07:15;22.33;;;14.27;;
7903;SDS011;3997;48.416;8.512;2023-05-20T07:09:42;23.27;;;20.70;;
7903;SDS011;3997;48.416;8.512;2023-05-20T07:12:08;19.52;;;16.08;;
7903;SDS011;3997;48.416;8.512;2023-05-20T07:14:35;12.32;;;10.65;;
7903;SDS011;3997;48.416;8.512;2023-05-20T07:17:02;10.35;;;8.43;;
7903;SDS011;3997;48.416;8.512;2023-05-20T07:19:30;21.23;;;18.20;;
7903;SDS011;3997;48.416;8.512;2023-05-20T07:21:57;9.07;;;8.18;;
7903;SDS011;3997;48.416;8.512;2023-05-20T07:24:25;7.45;;;6.75;;
7903;SDS011;3997;48.416;8.512;2023-05-20T07:26:52;7.55;;;6.90;;
7903;SDS011;3997;48.416;8.512;2023-05-20T07:29:19;7.20;;;6.50;;
7903;SDS011;3997;48.416;8.512;2023-05-20T07:31:46;5.80;;;5.00;;
7903;SDS011;3997;48.416;8.512;2023-05-20T07:34:12;8.15;;;6.03;;
7903;SDS011;3997;48.416;8.512;2023-05-20T07:36:39;5.68;;;5.28;;
7903;SDS011;3997;48.416;8.512;2023-05-20T07:39:06;5.97;;;5.47;;
7903;SDS011;3997;48.416;8.512;2023-05-20T07:41:34;5.55;;;5.00;;
7903;SDS011;3997;48.416;8.512;2023-05-20T07:44:01;7.05;;;5.65;;
7903;SDS011;3997;48.416;8.512;2023-05-20T07:46:29;5.28;;;4.88;;
7903;SDS011;3997;48.416;8.512;2023-05-20T07:48:56;5.20;;;4.80;;
7903;SDS011;3997;48.416;8.512;2023-05-20T07:51:23;6.32;;;5.72;;
7903;SDS011;3997;48.416;8.512;2023-05-20T07:53:49;5.13;;;4.47;;
7903;SDS011;3997;48.416;8.512;2023-05-20T07:56:16;5.10;;;4.70;;
7903;SDS011;3997;48.416;8.512;2023-05-20T07:58:50;5.50;;;5.00;;
7903;SDS011;3997;48.416;8.512;2023-05-20T08:01:17;5.35;;;4.85;;
7903;SDS011;3997;48.416;8.512;2023-05-20T08:03:45;5.40;;;4.97;;
7903;SDS011;3997;48.416;8.512;2023-05-20T08:06:11;5.50;;;4.95;;
7903;SDS011;3997;48.416;8.512;2023-05-20T08:08:38;5.57;;;5.07;;
7903;SDS011;3997;48.416;8.512;2023-05-20T08:11:05;5.43;;;4.90;;
7903;SDS011;3997;48.416;8.512;2023-05-20T08:13:32;5.88;;;5.32;;
7903;SDS011;3997;48.416;8.512;2023-05-20T08:16:00;5.97;;;5.15;;
7903;SDS011;3997;48.416;8.512;2023-05-20T08:18:28;6.78;;;6.22;;
7903;SDS011;3997;48.416;8.512;2023-05-20T08:20:54;5.28;;;4.88;;
7903;SDS011;3997;48.416;8.512;2023-05-20T08:23:21;6.13;;;5.50;;
7903;SDS011;3997;48.416;8.512;2023-05-20T08:25:48;5.25;;;4.75;;
7903;SDS011;3997;48.416;8.512;2023-05-20T08:28:14;5.60;;;5.10;;
7903;SDS011;3997;48.416;8.512;2023-05-20T08:30:41;5.20;;;4.80;;
7903;SDS011;3997;48.416;8.512;2023-05-20T08:33:10;5.65;;;5.25;;
7903;SDS011;3997;48.416;8.512;2023-05-20T08:35:37;5.40;;;4.97;;
7903;SDS011;3997;48.416;8.512;2023-05-20T08:38:04;5.50;;;5.00;;
7903;SDS011;3997;48.416;8.512;2023-05-20T08:40:33;5.22;;;4.93;;
7903;SDS011;3997;48.416;8.512;2023-05-20T08:43:00;5.65;;;5.15;;
7903;SDS011;3997;48.416;8.512;2023-05-20T08:45:27;4.97;;;4.47;;
7903;SDS011;3997;48.416;8.512;2023-05-20T08:47:57;5.30;;;4.90;;
7903;SDS011;3997;48.416;8.512;2023-05-20T08:50:25;6.15;;;5.55;;
7903;SDS011;3997;48.416;8.512;2023-05-20T08:52:52;5.80;;;5.40;;
7903;SDS011;3997;48.416;8.512;2023-05-20T08:55:22;5.72;;;5.20;;
7903;SDS011;3997;48.416;8.512;2023-05-20T08:57:50;6.30;;;5.72;;
7903;SDS011;3997;48.416;8.512;2023-05-20T09:00:19;4.75;;;4.35;;
7903;SDS011;3997;48.416;8.512;2023-05-20T09:02:48;5.45;;;5.05;;
7903;SDS011;3997;48.416;8.512;2023-05-20T09:05:16;5.13;;;4.72;;
7903;SDS011;3997;48.416;8.512;2023-05-20T09:07:44;5.57;;;4.97;;
7903;SDS011;3997;48.416;8.512;2023-05-20T09:10:11;5.22;;;4.82;;
7903;SDS011;3997;48.416;8.512;2023-05-20T09:12:38;5.55;;;5.15;;
7903;SDS011;3997;48.416;8.512;2023-05-20T09:15:05;5.70;;;5.30;;
7903;SDS011;3997;48.416;8.512;2023-05-20T09:17:33;5.75;;;5.35;;
7903;SDS011;3997;48.416;8.512;2023-05-20T09:20:01;5.85;;;5.45;;
7903;SDS011;3997;48.416;8.512;2023-05-20T09:22:32;5.60;;;5.10;;
7903;SDS011;3997;48.416;8.512;2023-05-20T09:25:00;5.97;;;5.30;;
7903;SDS011;3997;48.416;8.512;2023-05-20T09:27:27;6.03;;;5.53;;
7903;SDS011;3997;48.416;8.512;2023-05-20T09:29:54;5.82;;;5.32;;
7903;SDS011;3997;48.416;8.512;2023-05-20T09:32:20;5.63;;;5.22;;
7903;SDS011;3997;48.416;8.512;2023-05-20T09:34:50;6.60;;;6.10;;
7903;SDS011;3997;48.416;8.512;2023-05-20T09:37:17;5.65;;;5.25;;
7903;SDS011;3997;48.416;8.512;2023-05-20T09:39:48;5.03;;;4.72;;
7903;SDS011;3997;48.416;8.512;2023-05-20T09:42:25;5.85;;;5.38;;
7903;SDS011;3997;48.416;8.512;2023-05-20T09:44:57;5.97;;;5.47;;
7903;SDS011;3997;48.416;8.512;2023-05-20T09:47:24;5.53;;;5.13;;
7903;SDS011;3997;48.416;8.512;2023-05-20T09:49:52;5.53;;;5.03;;
7903;SDS011;3997;48.416;8.512;2023-05-20T09:52:19;6.07;;;5.50;;
7903;SDS011;3997;48.416;8.512;2023-05-20T09:54:46;5.50;;;5.10;;
7903;SDS011;3997;48.416;8.512;2023-05-20T09:57:14;5.88;;;5.30;;
7903;SDS011;3997;48.416;8.512;2023-05-20T09:59:43;6.28;;;5.72;;
7903;SDS011;3997;48.416;8.512;2023-05-20T10:02:12;5.78;;;5.28;;
7903;SDS011;3997;48.416;8.512;2023-05-20T10:04:45;5.35;;;4.95;;
7903;SDS011;3997;48.416;8.512;2023-05-20T10:07:26;5.20;;;4.90;;
7903;SDS011;3997;48.416;8.512;2023-05-20T10:10:15;5.50;;;5.10;;
7903;SDS011;3997;48.416;8.512;2023-05-20T10:12:53;5.25;;;4.85;;
7903;SDS011;3997;48.416;8.512;2023-05-20T10:15:35;5.53;;;5.13;;
7903;SDS011;3997;48.416;8.512;2023-05-20T10:18:10;6.00;;;5.40;;
7903;SDS011;3997;48.416;8.512;2023-05-20T10:20:49;6.28;;;5.70;;
7903;SDS011;3997;48.416;8.512;2023-05-20T10:23:19;5.15;;;4.72;;
7903;SDS011;3997;48.416;8.512;2023-05-20T10:25:51;5.43;;;4.93;;
7903;SDS011;3997;48.416;8.512;2023-05-20T10:28:26;5.60;;;5.18;;
7903;SDS011;3997;48.416;8.512;2023-05-20T10:30:56;5.43;;;5.07;;
7903;SDS011;3997;48.416;8.512;2023-05-20T10:33:24;6.07;;;5.65;;
7903;SDS011;3997;48.416;8.512;2023-05-20T10:35:52;6.43;;;5.70;;
7903;SDS011;3997;48.416;8.512;2023-05-20T10:38:19;5.57;;;5.18;;
7903;SDS011;3997;48.416;8.512;2023-05-20T10:40:46;6.03;;;5.63;;
7903;SDS011;3997;48.416;8.512;2023-05-20T10:43:13;6.13;;;4.68;;
7903;SDS011;3997;48.416;8.512;2023-05-20T10:45:47;5.22;;;4.93;;
7903;SDS011;3997;48.416;8.512;2023-05-20T10:48:22;6.03;;;4.80;;
7903;SDS011;3997;48.416;8.512;2023-05-20T10:50:49;5.22;;;4.90;;
7903;SDS011;3997;48.416;8.512;2023-05-20T10:53:20;5.43;;;5.03;;
7903;SDS011;3997;48.416;8.512;2023-05-20T10:55:48;5.53;;;5.00;;
7903;SDS011;3997;48.416;8.512;2023-05-20T10:58:16;5.13;;;4.80;;
7903;SDS011;3997;48.416;8.512;2023-05-20T11:00:44;5.28;;;4.78;;
7903;SDS011;3997;48.416;8.512;2023-05-20T11:03:11;5.15;;;4.57;;
7903;SDS011;3997;48.416;8.512;2023-05-20T11:05:40;5.90;;;5.40;;
7903;SDS011;3997;48.416;8.512;2023-05-20T11:08:08;5.35;;;5.00;;
7903;SDS011;3997;48.416;8.512;2023-05-20T11:10:35;5.22;;;4.93;;
7903;SDS011;3997;48.416;8.512;2023-05-20T11:13:02;5.65;;;5.25;;
7903;SDS011;3997;48.416;8.512;2023-05-20T11:15:30;5.47;;;5.07;;
7903;SDS011;3997;48.416;8.512;2023-05-20T11:17:59;5.20;;;4.90;;
7903;SDS011;3997;48.416;8.512;2023-05-20T11:20:27;5.30;;;4.90;;
7903;SDS011;3997;48.416;8.512;2023-05-20T11:22:55;5.80;;;5.30;;
7903;SDS011;3997;48.416;8.512;2023-05-20T11:25:22;5.10;;;4.80;;
7903;SDS011;3997;48.416;8.512;2023-05-20T11:27:49;5.60;;;5.20;;
7903;SDS011;3997;48.416;8.512;2023-05-20T11:30:16;5.55;;;5.22;;
7903;SDS011;3997;48.416;8.512;2023-05-20T11:32:55;5.55;;;5.15;;
7903;SDS011;3997;48.416;8.512;2023-05-20T11:35:22;6.10;;;5.47;;
7903;SDS011;3997;48.416;8.512;2023-05-20T11:37:53;5.15;;;4.75;;
7903;SDS011;3997;48.416;8.512;2023-05-20T11:40:23;5.30;;;5.00;;
7903;SDS011;3997;48.416;8.512;2023-05-20T11:42:52;5.07;;;4.78;;
7903;SDS011;3997;48.416;8.512;2023-05-20T11:45:20;5.90;;;5.53;;
7903;SDS011;3997;48.416;8.512;2023-05-20T11:47:57;5.50;;;5.20;;
7903;SDS011;3997;48.416;8.512;2023-05-20T11:50:24;4.88;;;4.57;;
7903;SDS011;3997;48.416;8.512;2023-05-20T11:52:54;5.05;;;4.75;;
7903;SDS011;3997;48.416;8.512;2023-05-20T11:55:24;5.10;;;4.70;;
7903;SDS011;3997;48.416;8.512;2023-05-20T11:57:51;5.00;;;4.70;;
7903;SDS011;3997;48.416;8.512;2023-05-20T12:00:18;4.75;;;4.35;;
7903;SDS011;3997;48.416;8.512;2023-05-20T12:02:45;4.53;;;4.20;;
7903;SDS011;3997;48.416;8.512;2023-05-20T12:05:12;4.75;;;4.45;;
7903;SDS011;3997;48.416;8.512;2023-05-20T12:07:39;4.20;;;4.00;;
7903;SDS011;3997;48.416;8.512;2023-05-20T12:10:08;4.60;;;4.30;;
7903;SDS011;3997;48.416;8.512;2023-05-20T12:12:35;5.25;;;4.85;;
7903;SDS011;3997;48.416;8.512;2023-05-20T12:15:01;5.10;;;4.60;;
7903;SDS011;3997;48.416;8.512;2023-05-20T12:17:28;5.13;;;4.82;;
7903;SDS011;3997;48.416;8.512;2023-05-20T12:19:55;5.03;;;4.55;;
7903;SDS011;3997;48.416;8.512;2023-05-20T12:22:21;4.13;;;3.70;;
7903;SDS011;3997;48.416;8.512;2023-05-20T12:24:48;7.85;;;4.60;;
7903;SDS011;3997;48.416;8.512;2023-05-20T12:27:17;5.47;;;5.18;;
7903;SDS011;3997;48.416;8.512;2023-05-20T12:29:43;5.65;;;5.35;;
7903;SDS011;3997;48.416;8.512;2023-05-20T12:32:10;5.32;;;5.03;;
7903;SDS011;3997;48.416;8.512;2023-05-20T12:34:37;5.78;;;5.38;;
7903;SDS011;3997;48.416;8.512;2023-05-20T12:37:03;5.50;;;5.00;;
7903;SDS011;3997;48.416;8.512;2023-05-20T12:39:31;5.43;;;4.93;;
7903;SDS011;3997;48.416;8.512;2023-05-20T12:41:57;4.90;;;4.65;;
7903;SDS011;3997;48.416;8.512;2023-05-20T12:44:25;5.63;;;5.22;;
7903;SDS011;3997;48.416;8.512;2023-05-20T12:46:53;5.05;;;4.75;;
7903;SDS011;3997;48.416;8.512;2023-05-20T12:49:20;5.60;;;5.30;;
7903;SDS011;3997;48.416;8.512;2023-05-20T12:51:46;5.78;;;5.22;;
7903;SDS011;3997;48.416;8.512;2023-05-20T12:54:13;5.78;;;5.22;;
7903;SDS011;3997;48.416;8.512;2023-05-20T12:56:40;5.63;;;5.20;;
7903;SDS011;3997;48.416;8.512;2023-05-20T12:59:11;5.35;;;5.00;;
7903;SDS011;3997;48.416;8.512;2023-05-20T13:01:39;5.53;;;5.13;;
7903;SDS011;3997;48.416;8.512;2023-05-20T13:04:06;5.63;;;5.32;;
7903;SDS011;3997;48.416;8.512;2023-05-20T13:06:32;5.70;;;5.40;;
7903;SDS011;3997;48.416;8.512;2023-05-20T13:08:59;5.22;;;4.95;;
7903;SDS011;3997;48.416;8.512;2023-05-20T13:11:26;5.00;;;4.70;;
7903;SDS011;3997;48.416;8.512;2023-05-20T13:13:53;5.25;;;4.95;;
7903;SDS011;3997;48.416;8.512;2023-05-20T13:16:21;4.93;;;4.70;;
7903;SDS011;3997;48.416;8.512;2023-05-20T13:18:49;5.05;;;4.75;;
7903;SDS011;3997;48.416;8.512;2023-05-20T13:21:16;4.95;;;4.65;;
7903;SDS011;3997;48.416;8.512;2023-05-20T13:23:43;5.20;;;4.75;;
7903;SDS011;3997;48.416;8.512;2023-05-20T13:26:09;5.05;;;4.70;;
7903;SDS011;3997;48.416;8.512;2023-05-20T13:28:37;4.82;;;4.50;;
7903;SDS011;3997;48.416;8.512;2023-05-20T13:31:04;4.72;;;4.43;;
7903;SDS011;3997;48.416;8.512;2023-05-20T13:33:31;4.82;;;4.53;;
7903;SDS011;3997;48.416;8.512;2023-05-20T13:35:59;4.38;;;4.07;;
7903;SDS011;3997;48.416;8.512;2023-05-20T13:38:26;5.32;;;4.82;;
7903;SDS011;3997;48.416;8.512;2023-05-20T13:40:53;4.88;;;4.57;;
7903;SDS011;3997;48.416;8.512;2023-05-20T13:43:23;5.00;;;4.63;;
7903;SDS011;3997;48.416;8.512;2023-05-20T13:45:50;5.32;;;5.03;;
7903;SDS011;3997;48.416;8.512;2023-05-20T13:48:16;4.80;;;4.47;;
7903;SDS011;3997;48.416;8.512;2023-05-20T13:50:43;5.20;;;4.90;;
7903;SDS011;3997;48.416;8.512;2023-05-20T13:53:11;5.15;;;4.72;;
7903;SDS011;3997;48.416;8.512;2023-05-20T13:55:38;4.75;;;4.45;;
7903;SDS011;3997;48.416;8.512;2023-05-20T13:58:05;4.40;;;4.20;;
7903;SDS011;3997;48.416;8.512;2023-05-20T14:00:33;4.90;;;4.70;;
7903;SDS011;3997;48.416;8.512;2023-05-20T14:03:00;5.05;;;4.75;;
7903;SDS011;3997;48.416;8.512;2023-05-20T14:05:28;4.93;;;4.63;;
7903;SDS011;3997;48.416;8.512;2023-05-20T14:07:56;4.90;;;4.60;;
7903;SDS011;3997;48.416;8.512;2023-05-20T14:10:24;5.28;;;4.88;;
7903;SDS011;3997;48.416;8.512;2023-05-20T14:12:52;5.20;;;4.82;;
7903;SDS011;3997;48.416;8.512;2023-05-20T14:15:19;4.40;;;4.10;;
7903;SDS011;3997;48.416;8.512;2023-05-20T14:17:46;5.28;;;4.88;;
7903;SDS011;3997;48.416;8.512;2023-05-20T14:20:13;4.70;;;4.50;;
7903;SDS011;3997;48.416;8.512;2023-05-20T14:22:40;5.07;;;4.68;;
7903;SDS011;3997;48.416;8.512;2023-05-20T14:25:08;5.00;;;4.70;;
7903;SDS011;3997;48.416;8.512;2023-05-20T14:27:36;5.38;;;5.07;;
7903;SDS011;3997;48.416;8.512;2023-05-20T14:30:03;4.50;;;4.30;;
7903;SDS011;3997;48.416;8.512;2023-05-20T14:32:30;4.88;;;4.63;;
7903;SDS011;3997;48.416;8.512;2023-05-20T14:34:57;4.88;;;4.47;;
7903;SDS011;3997;48.416;8.512;2023-05-20T14:37:24;5.43;;;5.03;;
7903;SDS011;3997;48.416;8.512;2023-05-20T14:39:52;5.65;;;5.32;;
7903;SDS011;3997;48.416;8.512;2023-05-20T14:42:18;6.00;;;5.70;;
7903;SDS011;3997;48.416;8.512;2023-05-20T14:44:46;5.07;;;4.82;;
7903;SDS011;3997;48.416;8.512;2023-05-20T14:47:13;5.15;;;4.85;;
7903;SDS011;3997;48.416;8.512;2023-05-20T14:49:43;5.18;;;4.88;;
7903;SDS011;3997;48.416;8.512;2023-05-20T14:52:11;5.10;;;4.80;;
7903;SDS011;3997;48.416;8.512;2023-05-20T14:54:38;5.55;;;5.15;;
7903;SDS011;3997;48.416;8.512;2023-05-20T14:57:04;4.97;;;4.68;;
7903;SDS011;3997;48.416;8.512;2023-05-20T14:59:31;5.60;;;5.28;;
7903;SDS011;3997;48.416;8.512;2023-05-20T15:01:59;5.28;;;4.97;;
7903;SDS011;3997;48.416;8.512;2023-05-20T15:04:26;5.47;;;5.18;;
7903;SDS011;3997;48.416;8.512;2023-05-20T15:06:52;5.55;;;5.15;;
7903;SDS011;3997;48.416;8.512;2023-05-20T15:09:19;5.38;;;5.03;;
7903;SDS011;3997;48.416;8.512;2023-05-20T15:11:46;5.22;;;4.93;;
7903;SDS011;3997;48.416;8.512;2023-05-20T15:14:13;5.05;;;4.75;;
7903;SDS011;3997;48.416;8.512;2023-05-20T15:16:40;5.10;;;4.70;;
7903;SDS011;3997;48.416;8.512;2023-05-20T15:19:09;4.60;;;4.30;;